Time;durP1;ratioP1;P1;durP2;ratioP2;P2;SDS_P1;SDS_P2;PMS_P1;PMS_P2;Temp;Humidity;BMP_temperature;BMP_pressure;BME280_temperature;BME280_humidity;BME280_pressure;Samples;Min_cycle;Max_cycle;Signal;HPM_P1;HPM_P2
2023/01/18 00:01:51;;;;;;;;;;;2.20;99.90;;;;;;5020069;28;19910;-69
2023/01/18 00:04:16;;;;;;;;;;;2.10;99.90;;;;;;5019668;28;19909;-70
2023/01/18 00:06:42;;;;;;;;;;;2.10;99.90;;;;;;5037480;28;19924;-69
2023/01/18 00:09:07;;;;;;;;;;;2.10;99.90;;;;;;5037535;28;19909;-68
2023/01/18 00:11:33;;;;;;;;;;;2.10;99.90;;;;;;5019549;28;19968;-70
2023/01/18 00:13:58;;;;;;;;;;;2.10;99.90;;;;;;5037150;28;19917;-70
2023/01/18 00:16:24;;;;;;;;;;;2.20;99.90;;;;;;5019615;28;20293;-70
2023/01/18 00:18:51;;;;;;;;;;;2.20;99.90;;;;;;5037547;28;20366;-69
2023/01/18 00:21:17;;;;;;;;;;;2.20;99.90;;;;;;5019349;28;19952;-69
2023/01/18 00:23:42;;;;;;;;;;;2.20;99.90;;;;;;5037360;28;19960;-69
2023/01/18 00:26:09;;;;;;;;;;;2.20;99.90;;;;;;5019452;28;20000;-70
2023/01/18 00:28:34;;;;;;;;;;;2.30;99.90;;;;;;5019013;28;19919;-69
2023/01/18 00:31:00;;;;;;;;;;;2.20;99.90;;;;;;5019107;28;19995;-69
2023/01/18 00:33:25;;;;;;;;;;;2.20;99.90;;;;;;5036576;28;19917;-69
2023/01/18 00:35:58;;;;;;;;;;;2.20;99.90;;;;;;5036690;28;19924;-69
2023/01/18 00:38:23;;;;;;;;;;;2.20;99.90;;;;;;5036550;28;19909;-69
2023/01/18 00:40:49;;;;;;;;;;;2.20;99.90;;;;;;5036481;28;19909;-68
2023/01/18 00:45:59;;;;;;;;;;;2.20;99.90;;;;;;5035813;28;19960;-70
2023/01/18 00:48:24;;;;;;;;;;;2.10;99.90;;;;;;5036288;28;20379;-69
2023/01/18 00:50:50;;;;;;;;;;;2.10;99.90;;;;;;5018352;28;19909;-69
2023/01/18 00:53:15;;;;;;;;;;;2.10;99.90;;;;;;5018511;28;19913;-68
2023/01/18 00:55:40;;;;;;;;;;;2.10;99.90;;;;;;5036247;28;19910;-68
2023/01/18 00:58:06;;;;;;;;;;;2.00;99.90;;;;;;5036043;28;19916;-69
2023/01/18 01:00:32;;;;;;;;;;;2.10;99.90;;;;;;5018817;28;19996;-69
2023/01/18 01:02:58;;;;;;;;;;;2.10;99.90;;;;;;5018031;28;20226;-68
2023/01/18 01:08:15;;;;;;;;;;;2.20;99.90;;;;;;5036069;28;20301;-69
2023/01/18 01:10:41;;;;;;;;;;;2.20;99.90;;;;;;5036382;28;19951;-68
2023/01/18 01:26:48;;;;;;;;;;;2.30;99.90;;;;;;5036364;28;19931;-73
2023/01/18 01:29:14;;;;;;;;;;;2.30;99.90;;;;;;5035927;28;19909;-73
2023/01/18 01:31:40;;;;;;;;;;;2.40;99.90;;;;;;5018174;28;20514;-74
2023/01/18 01:34:05;;;;;;;;;;;2.30;99.90;;;;;;5017827;28;19913;-74
2023/01/18 01:36:31;;;;;;;;;;;2.20;99.90;;;;;;5017747;28;19909;-74
2023/01/18 01:38:57;;;;;;;;;;;2.10;99.90;;;;;;5017940;28;19963;-74
2023/01/18 01:41:27;;;;;;;;;;;2.00;99.90;;;;;;5035252;28;19916;-74
2023/01/18 01:43:54;;;;;;;;;;;1.90;99.90;;;;;;5017802;28;19913;-74
2023/01/18 01:46:31;;;;;;;;;;;1.90;99.90;;;;;;5035702;28;19917;-74
2023/01/18 01:49:01;;;;;;;;;;;2.00;99.90;;;;;;5035775;28;19913;-74
2023/01/18 01:51:26;;;;;;;;;;;1.90;99.90;;;;;;5017794;28;19945;-74
2023/01/18 01:53:52;;;;;;;;;;;1.90;99.90;;;;;;5035510;28;19963;-74
2023/01/18 01:56:18;;;;;;;;;;;1.80;99.90;;;;;;5035311;28;19920;-74
2023/01/18 01:58:45;;;;;;;;;;;1.80;99.90;;;;;;5016692;28;19909;-74
2023/01/18 02:01:10;;;;;;;;;;;1.90;99.90;;;;;;5036045;28;19963;-74
2023/01/18 02:03:38;;;;;;;;;;;2.00;99.90;;;;;;5019346;28;19910;-74
2023/01/18 02:06:13;;;;;;;;;;;1.90;99.90;;;;;;5022248;28;19909;-74
2023/01/18 02:08:39;;;;;;;;;;;2.00;99.90;;;;;;5055559;28;20375;-75
2023/01/18 02:11:05;;;;;;;;;;;2.00;99.90;;;;;;5037499;28;19909;-73
2023/01/18 02:13:30;;;;;;;;;;;2.10;99.90;;;;;;5037062;28;19917;-73
2023/01/18 02:16:03;;;;;;;;;;;2.20;99.90;;;;;;5036988;28;20323;-73
2023/01/18 02:18:33;;;;;;;;;;;2.20;99.90;;;;;;5037090;28;19909;-74
2023/01/18 02:21:09;;;;;;;;;;;2.20;99.90;;;;;;5036739;28;19909;-72
2023/01/18 02:23:43;;;;;;;;;;;2.20;99.90;;;;;;5055166;28;19999;-74
2023/01/18 02:26:29;;;;;;;;;;;2.20;99.90;;;;;;5037015;28;20006;-73
2023/01/18 02:29:10;;;;;;;;;;;2.20;99.90;;;;;;5036664;28;20365;-74
2023/01/18 02:31:38;;;;;;;;;;;2.10;99.90;;;;;;5054666;28;19913;-74
2023/01/18 02:34:23;;;;;;;;;;;2.20;99.90;;;;;;5036430;28;20073;-75
2023/01/18 02:37:04;;;;;;;;;;;2.30;99.90;;;;;;5054097;28;19958;-74
2023/01/18 02:39:43;;;;;;;;;;;2.40;99.90;;;;;;5036401;28;19909;-74
2023/01/18 02:47:50;;;;;;;;;;;2.50;99.90;;;;;;5056295;28;19962;-74
2023/01/18 02:50:24;;;;;;;;;;;2.50;99.90;;;;;;5055530;28;19915;-74
2023/01/18 02:52:50;;;;;;;;;;;2.40;99.90;;;;;;5055517;28;20003;-73
2023/01/18 02:55:23;;;;;;;;;;;2.40;99.90;;;;;;5039408;28;19931;-74
2023/01/18 02:57:49;;;;;;;;;;;2.40;99.90;;;;;;5038876;28;19988;-73
2023/01/18 03:00:17;;;;;;;;;;;2.40;99.90;;;;;;5039628;28;19952;-73
2023/01/18 03:02:45;;;;;;;;;;;2.40;99.90;;;;;;5054495;28;20060;-73
2023/01/18 03:05:10;;;;;;;;;;;2.40;99.90;;;;;;5053948;28;19963;-74
2023/01/18 03:07:47;;;;;;;;;;;2.50;99.90;;;;;;5038234;28;19909;-74
2023/01/18 03:10:12;;;;;;;;;;;2.50;99.90;;;;;;5032960;28;20382;-73
2023/01/18 03:12:46;;;;;;;;;;;2.60;99.90;;;;;;5032658;28;19971;-73
2023/01/18 03:15:21;;;;;;;;;;;2.70;99.90;;;;;;5016586;28;19924;-73
2023/01/18 03:17:52;;;;;;;;;;;2.80;99.90;;;;;;5016353;28;20004;-73
2023/01/18 03:20:24;;;;;;;;;;;2.80;99.90;;;;;;5034125;28;20422;-75
2023/01/18 03:25:40;;;;;;;;;;;2.70;99.90;;;;;;5034177;28;19916;-73
2023/01/18 03:33:44;;;;;;;;;;;2.80;99.90;;;;;;5033665;28;19920;-73
2023/01/18 03:36:13;;;;;;;;;;;2.80;99.90;;;;;;5033674;28;20386;-72
2023/01/18 03:38:41;;;;;;;;;;;2.80;99.90;;;;;;5033769;28;20387;-73
2023/01/18 03:41:07;;;;;;;;;;;2.70;99.90;;;;;;5015881;28;20281;-72
2023/01/18 03:43:36;;;;;;;;;;;2.70;99.90;;;;;;5034157;28;19913;-72
2023/01/18 03:46:03;;;;;;;;;;;2.70;99.90;;;;;;5016652;28;20487;-73
2023/01/18 03:48:29;;;;;;;;;;;2.70;99.90;;;;;;5033882;28;19909;-73
2023/01/18 03:51:05;;;;;;;;;;;2.70;99.90;;;;;;5015737;28;20376;-72
2023/01/18 03:53:38;;;;;;;;;;;2.70;99.90;;;;;;5033475;28;20266;-72
2023/01/18 03:56:14;;;;;;;;;;;2.40;99.90;;;;;;5016319;28;19909;-72
2023/01/18 03:58:41;;;;;;;;;;;2.10;99.90;;;;;;5033709;28;19971;-72
2023/01/18 04:01:06;;;;;;;;;;;2.10;99.90;;;;;;5015865;28;19909;-72
2023/01/18 04:03:32;;;;;;;;;;;1.90;99.90;;;;;;5032228;28;19978;-73
2023/01/18 04:05:59;;;;;;;;;;;2.00;99.90;;;;;;5032571;28;19975;-73
2023/01/18 04:08:24;;;;;;;;;;;2.10;99.90;;;;;;5034865;28;19956;-73
2023/01/18 04:10:50;;;;;;;;;;;2.20;99.90;;;;;;5034419;28;20317;-73
2023/01/18 04:13:15;;;;;;;;;;;2.20;99.90;;;;;;5033681;28;19929;-72
2023/01/18 04:15:40;;;;;;;;;;;2.20;99.90;;;;;;5033378;28;19909;-72
2023/01/18 04:18:06;;;;;;;;;;;2.10;99.90;;;;;;5033121;28;20285;-72
2023/01/18 04:20:31;;;;;;;;;;;2.10;99.90;;;;;;5033120;28;19913;-72
2023/01/18 04:22:57;;;;;;;;;;;2.30;99.90;;;;;;5034483;28;19909;-72
2023/01/18 04:25:22;;;;;;;;;;;2.20;99.90;;;;;;5035254;28;19908;-72
2023/01/18 04:27:48;;;;;;;;;;;2.10;99.90;;;;;;5035308;28;20354;-71
2023/01/18 04:30:13;;;;;;;;;;;2.10;99.90;;;;;;5036648;28;19909;-72
2023/01/18 04:32:41;;;;;;;;;;;2.00;99.90;;;;;;5036425;28;19975;-71
2023/01/18 04:35:07;;;;;;;;;;;2.10;99.90;;;;;;5035206;28;19913;-71
2023/01/18 04:37:33;;;;;;;;;;;2.30;99.90;;;;;;5018418;28;19913;-72
2023/01/18 04:39:59;;;;;;;;;;;2.30;99.90;;;;;;5036365;28;19963;-72
2023/01/18 04:42:24;;;;;;;;;;;2.40;99.90;;;;;;5018393;28;19959;-72
2023/01/18 04:44:50;;;;;;;;;;;2.40;99.90;;;;;;5036229;28;20348;-71
2023/01/18 04:47:16;;;;;;;;;;;2.40;99.90;;;;;;5018830;28;20346;-72
2023/01/18 04:49:41;;;;;;;;;;;2.30;99.90;;;;;;5036184;28;20104;-72
2023/01/18 04:52:08;;;;;;;;;;;2.30;99.90;;;;;;5018016;28;20377;-71
2023/01/18 04:54:33;;;;;;;;;;;2.40;99.90;;;;;;5034745;28;19916;-72
2023/01/18 04:56:59;;;;;;;;;;;2.30;99.90;;;;;;5034929;28;19909;-72
2023/01/18 04:59:24;;;;;;;;;;;2.40;99.90;;;;;;5034868;28;19909;-72
2023/01/18 05:01:50;;;;;;;;;;;2.40;99.90;;;;;;5034856;28;20358;-71
2023/01/18 05:04:15;;;;;;;;;;;2.50;99.90;;;;;;5035298;28;19910;-72
2023/01/18 05:06:41;;;;;;;;;;;2.50;99.90;;;;;;5044446;28;20350;-72
2023/01/18 05:09:09;;;;;;;;;;;2.50;99.90;;;;;;5056528;28;19909;-72
2023/01/18 05:11:35;;;;;;;;;;;2.40;99.90;;;;;;5038237;28;19917;-72
2023/01/18 05:14:00;;;;;;;;;;;2.50;99.90;;;;;;5038015;28;19939;-71
2023/01/18 05:16:26;;;;;;;;;;;2.40;99.90;;;;;;5056211;28;19908;-72
2023/01/18 05:18:52;;;;;;;;;;;2.50;99.90;;;;;;5055936;28;19916;-71
2023/01/18 05:21:17;;;;;;;;;;;2.50;99.90;;;;;;5047795;28;19909;-71
2023/01/18 05:23:43;;;;;;;;;;;2.50;99.90;;;;;;5034351;28;20277;-71
2023/01/18 05:26:19;;;;;;;;;;;2.50;99.90;;;;;;5034396;28;19967;-71
2023/01/18 05:28:45;;;;;;;;;;;2.40;99.90;;;;;;5035501;28;19992;-71
2023/01/18 05:31:11;;;;;;;;;;;2.30;99.90;;;;;;5035445;28;20345;-71
2023/01/18 05:33:37;;;;;;;;;;;2.40;99.90;;;;;;5017224;28;19913;-71
2023/01/18 05:36:02;;;;;;;;;;;2.50;99.90;;;;;;5034261;28;19913;-72
2023/01/18 05:38:28;;;;;;;;;;;2.50;99.90;;;;;;5035329;28;19917;-72
2023/01/18 05:40:53;;;;;;;;;;;2.40;99.90;;;;;;5035616;28;19916;-68
2023/01/18 05:43:20;;;;;;;;;;;2.40;99.90;;;;;;5035575;28;19916;-68
2023/01/18 05:45:46;;;;;;;;;;;2.20;99.90;;;;;;5034408;28;20263;-67
2023/01/18 05:48:12;;;;;;;;;;;2.10;99.90;;;;;;5036118;28;19955;-67
2023/01/18 05:50:39;;;;;;;;;;;2.10;99.90;;;;;;5037389;28;19909;-68
2023/01/18 05:53:04;;;;;;;;;;;2.10;99.90;;;;;;5037167;28;19940;-66
2023/01/18 05:55:30;;;;;;;;;;;2.20;99.90;;;;;;5056002;28;19916;-67
2023/01/18 05:57:55;;;;;;;;;;;2.20;99.90;;;;;;5056237;28;19909;-68
2023/01/18 06:00:24;;;;;;;;;;;2.40;99.90;;;;;;5038092;28;20388;-68
2023/01/18 06:02:50;;;;;;;;;;;2.40;99.90;;;;;;5038731;28;19970;-68
2023/01/18 06:05:16;;;;;;;;;;;2.40;99.90;;;;;;5056046;28;19976;-68
2023/01/18 06:07:41;;;;;;;;;;;2.40;99.90;;;;;;5037951;28;19927;-67
2023/01/18 06:10:07;;;;;;;;;;;2.40;99.90;;;;;;5055638;28;20325;-66
2023/01/18 06:12:33;;;;;;;;;;;2.40;99.90;;;;;;5054631;28;19982;-66
2023/01/18 06:14:59;;;;;;;;;;;2.30;99.90;;;;;;5055697;28;20369;-67
2023/01/18 06:17:25;;;;;;;;;;;2.20;99.90;;;;;;5037065;28;19917;-66
2023/01/18 06:19:50;;;;;;;;;;;2.20;99.90;;;;;;5041002;28;20247;-67
2023/01/18 06:22:15;;;;;;;;;;;2.10;99.90;;;;;;5034734;28;19909;-67
2023/01/18 06:24:41;;;;;;;;;;;2.10;99.90;;;;;;5034181;28;19987;-66
2023/01/18 06:27:06;;;;;;;;;;;2.20;99.90;;;;;;5034931;28;19921;-66
2023/01/18 06:29:32;;;;;;;;;;;2.30;99.90;;;;;;5035471;28;20394;-67
2023/01/18 06:31:57;;;;;;;;;;;2.30;99.90;;;;;;5035219;28;20012;-67
2023/01/18 06:34:23;;;;;;;;;;;2.30;99.90;;;;;;5017361;28;19910;-67
2023/01/18 06:36:48;;;;;;;;;;;2.20;99.90;;;;;;5020221;28;20469;-67
2023/01/18 06:39:14;;;;;;;;;;;2.20;99.90;;;;;;5036317;28;20046;-66
2023/01/18 06:41:39;;;;;;;;;;;2.20;99.90;;;;;;5019824;28;19921;-67
2023/01/18 06:44:05;;;;;;;;;;;2.30;99.90;;;;;;5015230;28;19913;-66
2023/01/18 06:46:31;;;;;;;;;;;2.30;99.90;;;;;;5035219;28;19973;-68
2023/01/18 06:48:56;;;;;;;;;;;2.30;99.90;;;;;;5035268;28;19916;-68
2023/01/18 06:51:22;;;;;;;;;;;2.30;99.90;;;;;;5035314;28;19917;-67
2023/01/18 06:53:48;;;;;;;;;;;2.20;99.90;;;;;;5019720;28;19967;-67
2023/01/18 06:56:14;;;;;;;;;;;2.30;99.90;;;;;;5035502;28;19931;-67
2023/01/18 06:58:40;;;;;;;;;;;2.20;99.90;;;;;;5043821;28;20413;-67
2023/01/18 07:01:06;;;;;;;;;;;2.20;99.90;;;;;;5034056;28;19916;-67
2023/01/18 07:03:32;;;;;;;;;;;2.30;99.90;;;;;;5016372;28;20311;-67
2023/01/18 07:05:59;;;;;;;;;;;2.20;99.90;;;;;;5034461;28;20315;-67
2023/01/18 07:08:25;;;;;;;;;;;2.30;99.90;;;;;;5016556;28;20004;-67
2023/01/18 07:10:51;;;;;;;;;;;2.30;99.90;;;;;;5034539;28;19947;-65
2023/01/18 07:13:17;;;;;;;;;;;2.30;99.90;;;;;;5034879;28;19925;-66
2023/01/18 07:15:42;;;;;;;;;;;2.20;99.90;;;;;;5034376;28;19920;-66
2023/01/18 07:18:08;;;;;;;;;;;2.20;99.90;;;;;;5034886;28;19913;-72
2023/01/18 07:20:33;;;;;;;;;;;2.20;99.90;;;;;;5012587;28;20387;-72
2023/01/18 07:22:59;;;;;;;;;;;2.20;99.90;;;;;;5053492;23;20019;-68
2023/01/18 07:25:26;;;;;;;;;;;2.20;99.90;;;;;;5053803;28;19909;-69
2023/01/18 07:27:51;;;;;;;;;;;2.10;99.90;;;;;;5053706;28;19908;-69
2023/01/18 07:30:17;;;;;;;;;;;2.10;99.90;;;;;;5053422;28;20404;-70
2023/01/18 07:32:50;;;;;;;;;;;2.10;99.90;;;;;;5053177;28;19917;-71
2023/01/18 07:35:17;;;;;;;;;;;2.10;99.90;;;;;;5053477;28;19913;-71
2023/01/18 07:37:46;;;;;;;;;;;2.20;99.90;;;;;;5053644;28;19909;-70
2023/01/18 07:40:14;;;;;;;;;;;2.20;99.90;;;;;;5053489;28;19908;-70
2023/01/18 07:42:39;;;;;;;;;;;2.20;99.90;;;;;;5053287;28;19909;-71
2023/01/18 07:45:07;;;;;;;;;;;2.20;99.90;;;;;;5052339;28;19909;-70
2023/01/18 07:47:34;;;;;;;;;;;2.20;99.90;;;;;;5053297;28;19944;-71
2023/01/18 07:49:59;;;;;;;;;;;2.30;99.90;;;;;;5053217;28;20337;-73
2023/01/18 07:52:25;;;;;;;;;;;2.40;99.90;;;;;;5053060;28;19982;-70
2023/01/18 07:54:51;;;;;;;;;;;2.40;99.90;;;;;;5053536;28;20297;-71
2023/01/18 07:57:16;;;;;;;;;;;2.50;99.90;;;;;;5056027;28;20291;-70
2023/01/18 07:59:42;;;;;;;;;;;2.50;99.90;;;;;;5056416;28;19909;-70
2023/01/18 08:02:11;;;;;;;;;;;2.50;99.90;;;;;;5057384;28;19935;-69
2023/01/18 08:04:36;;;;;;;;;;;2.60;99.90;;;;;;5056144;28;19913;-69
2023/01/18 08:07:02;;;;;;;;;;;2.60;99.90;;;;;;5058245;28;19932;-69
2023/01/18 08:09:27;;;;;;;;;;;2.70;99.90;;;;;;5063871;28;19913;-69
2023/01/18 08:11:53;;;;;;;;;;;2.80;99.90;;;;;;5060234;28;19924;-70
2023/01/18 08:14:19;;;;;;;;;;;2.80;99.90;;;;;;5057950;28;19919;-69
2023/01/18 08:16:45;;;;;;;;;;;2.80;99.90;;;;;;5057133;28;19909;-70
2023/01/18 08:19:10;;;;;;;;;;;2.80;99.90;;;;;;5055585;28;19931;-70
2023/01/18 08:21:35;;;;;;;;;;;2.90;99.90;;;;;;5056578;28;19909;-69
2023/01/18 08:24:01;;;;;;;;;;;2.80;99.90;;;;;;5055468;28;19925;-70
2023/01/18 08:26:27;;;;;;;;;;;2.80;99.90;;;;;;5055042;28;20254;-69
2023/01/18 08:28:52;;;;;;;;;;;2.80;99.90;;;;;;5056891;28;19915;-69
2023/01/18 08:31:18;;;;;;;;;;;2.80;99.90;;;;;;5059602;28;20008;-70
2023/01/18 08:33:46;;;;;;;;;;;2.80;99.90;;;;;;5061975;28;19972;-71
2023/01/18 08:36:13;;;;;;;;;;;2.80;99.90;;;;;;5059036;28;19908;-68
2023/01/18 08:38:38;;;;;;;;;;;2.80;99.90;;;;;;5060510;28;19942;-70
2023/01/18 08:41:05;;;;;;;;;;;2.90;99.90;;;;;;5057263;28;19995;-71
2023/01/18 08:43:31;;;;;;;;;;;2.90;99.90;;;;;;5054933;28;19912;-71
2023/01/18 08:45:56;;;;;;;;;;;2.80;99.90;;;;;;5056147;28;19917;-69
2023/01/18 08:48:22;;;;;;;;;;;2.90;99.90;;;;;;5056207;28;19916;-70
2023/01/18 08:50:47;;;;;;;;;;;2.90;99.90;;;;;;5056034;28;19909;-70
2023/01/18 08:53:12;;;;;;;;;;;2.90;99.90;;;;;;5046118;28;19913;-71
2023/01/18 08:55:39;;;;;;;;;;;2.90;99.90;;;;;;5036125;28;19913;-70
2023/01/18 08:58:05;;;;;;;;;;;2.90;99.90;;;;;;5043437;28;19913;-70
2023/01/18 09:00:30;;;;;;;;;;;2.90;99.90;;;;;;5060620;28;19935;-74
2023/01/18 09:02:56;;;;;;;;;;;2.90;99.90;;;;;;5055221;28;19916;-74
2023/01/18 09:05:23;;;;;;;;;;;2.90;99.90;;;;;;5061891;28;19909;-77
2023/01/18 09:07:49;;;;;;;;;;;2.90;99.90;;;;;;5059704;28;19919;-76
2023/01/18 09:10:15;;;;;;;;;;;2.90;99.90;;;;;;5059500;28;20368;-74
2023/01/18 09:12:41;;;;;;;;;;;2.90;99.90;;;;;;5057925;28;20333;-75
2023/01/18 09:15:07;;;;;;;;;;;2.90;99.90;;;;;;5057537;28;20376;-75
2023/01/18 09:17:32;;;;;;;;;;;3.00;99.90;;;;;;5057641;28;19935;-73
2023/01/18 09:19:58;;;;;;;;;;;3.10;99.90;;;;;;5055616;28;19942;-72
2023/01/18 09:22:24;;;;;;;;;;;3.10;99.90;;;;;;5054489;28;19917;-74
2023/01/18 09:24:49;;;;;;;;;;;3.20;99.90;;;;;;5055770;28;19922;-74
2023/01/18 09:27:15;;;;;;;;;;;3.20;99.90;;;;;;5058036;28;19909;-73
2023/01/18 09:29:41;;;;;;;;;;;3.20;99.90;;;;;;5058577;28;20364;-72
2023/01/18 09:32:09;;;;;;;;;;;3.20;99.90;;;;;;5056586;28;20284;-73
2023/01/18 09:34:35;;;;;;;;;;;3.30;99.90;;;;;;5057073;28;19908;-73
2023/01/18 09:37:00;;;;;;;;;;;3.40;99.90;;;;;;5057394;28;19916;-73
2023/01/18 09:39:26;;;;;;;;;;;3.40;99.90;;;;;;5056389;28;19916;-71
2023/01/18 09:41:57;;;;;;;;;;;3.50;99.90;;;;;;5056801;28;19915;-74
2023/01/18 09:44:27;;;;;;;;;;;3.50;99.90;;;;;;5055670;28;19915;-69
2023/01/18 09:46:55;;;;;;;;;;;3.50;99.90;;;;;;5055043;28;19909;-69
2023/01/18 09:49:24;;;;;;;;;;;3.50;99.90;;;;;;5055605;28;20330;-75
2023/01/18 09:51:55;;;;;;;;;;;3.40;99.90;;;;;;5054697;28;19913;-74
2023/01/18 09:54:28;;;;;;;;;;;3.40;99.90;;;;;;5033930;28;19927;-74
2023/01/18 09:56:53;;;;;;;;;;;3.30;99.90;;;;;;5033796;28;19963;-75
2023/01/18 09:59:19;;;;;;;;;;;3.50;99.90;;;;;;5035121;28;20015;-71
2023/01/18 10:01:46;;;;;;;;;;;3.60;99.90;;;;;;5051165;28;19909;-70
2023/01/18 10:04:15;;;;;;;;;;;3.60;99.90;;;;;;5053555;28;19916;-71
2023/01/18 10:06:46;;;;;;;;;;;3.50;99.90;;;;;;5054838;28;19940;-70
2023/01/18 10:09:18;;;;;;;;;;;3.60;99.90;;;;;;5054252;28;19936;-74
2023/01/18 10:11:53;;;;;;;;;;;3.80;99.90;;;;;;5054577;28;19909;-69
2023/01/18 10:14:29;;;;;;;;;;;3.80;99.90;;;;;;5054994;28;20248;-68
2023/01/18 10:16:58;;;;;;;;;;;3.90;99.90;;;;;;5054817;28;20342;-69
2023/01/18 10:19:25;;;;;;;;;;;3.90;99.90;;;;;;5053946;28;20023;-69
2023/01/18 10:22:06;;;;;;;;;;;4.10;99.90;;;;;;5054754;28;20327;-69
2023/01/18 10:24:31;;;;;;;;;;;4.10;99.90;;;;;;5033356;28;19913;-68
2023/01/18 10:27:16;;;;;;;;;;;4.20;99.90;;;;;;5034886;28;20401;-74
2023/01/18 10:29:49;;;;;;;;;;;4.30;99.90;;;;;;5034901;28;20396;-75
2023/01/18 10:32:19;;;;;;;;;;;4.50;99.90;;;;;;5033300;28;20412;-73
2023/01/18 10:34:47;;;;;;;;;;;4.50;99.90;;;;;;5034385;28;19909;-72
2023/01/18 10:37:19;;;;;;;;;;;4.60;99.90;;;;;;5034473;28;20340;-70
2023/01/18 10:39:56;;;;;;;;;;;4.60;99.90;;;;;;5050207;28;20281;-70
2023/01/18 10:42:25;;;;;;;;;;;4.60;99.90;;;;;;5054377;28;19909;-70
2023/01/18 10:44:51;;;;;;;;;;;4.80;99.90;;;;;;5053083;28;19916;-70
2023/01/18 10:47:17;;;;;;;;;;;4.90;99.90;;;;;;5054094;28;19957;-70
2023/01/18 10:49:43;;;;;;;;;;;5.00;99.90;;;;;;5056466;28;19909;-70
2023/01/18 10:52:16;;;;;;;;;;;5.10;99.90;;;;;;5057067;28;20357;-70
2023/01/18 10:54:48;;;;;;;;;;;5.20;99.90;;;;;;5056756;28;19920;-70
2023/01/18 10:57:18;;;;;;;;;;;5.30;99.90;;;;;;5057743;28;20357;-71
2023/01/18 10:59:44;;;;;;;;;;;5.30;99.90;;;;;;5056989;28;19912;-69
2023/01/18 11:02:19;;;;;;;;;;;5.30;99.90;;;;;;5054178;28;20258;-73
2023/01/18 11:04:45;;;;;;;;;;;5.20;99.90;;;;;;5054549;28;20306;-71
2023/01/18 11:07:11;;;;;;;;;;;5.10;99.90;;;;;;5059267;28;19995;-72
2023/01/18 11:09:47;;;;;;;;;;;4.80;99.90;;;;;;5056321;28;19995;-73
2023/01/18 11:12:36;;;;;;;;;;;4.60;99.90;;;;;;5053862;28;19919;-71
2023/01/18 11:15:13;;;;;;;;;;;4.60;99.90;;;;;;5054615;28;19909;-73
2023/01/18 11:17:40;;;;;;;;;;;4.70;99.90;;;;;;5054473;28;19967;-73
2023/01/18 11:20:07;;;;;;;;;;;4.80;99.90;;;;;;5054416;28;19996;-72
2023/01/18 11:22:33;;;;;;;;;;;4.90;99.90;;;;;;5053239;28;19917;-72
2023/01/18 11:24:59;;;;;;;;;;;5.00;99.90;;;;;;5054066;28;19982;-72
2023/01/18 11:27:24;;;;;;;;;;;5.10;99.90;;;;;;5053560;28;20353;-71
2023/01/18 11:29:50;;;;;;;;;;;5.20;99.90;;;;;;5055444;28;19916;-74
2023/01/18 11:32:22;;;;;;;;;;;5.20;99.90;;;;;;5056671;28;19919;-73
2023/01/18 11:34:52;;;;;;;;;;;5.30;99.90;;;;;;5056925;28;19969;-72
2023/01/18 11:37:38;;;;;;;;;;;5.20;99.90;;;;;;5058739;28;19909;-71
2023/01/18 11:40:25;;;;;;;;;;;5.20;99.90;;;;;;5057855;28;19910;-70
2023/01/18 11:42:53;;;;;;;;;;;5.20;99.90;;;;;;5056489;28;19954;-70
2023/01/18 11:45:23;;;;;;;;;;;5.30;99.90;;;;;;5058045;28;20424;-70
2023/01/18 11:48:07;;;;;;;;;;;5.40;99.90;;;;;;5058044;28;19955;-70
2023/01/18 11:50:37;;;;;;;;;;;5.30;99.90;;;;;;5038922;28;19928;-71
2023/01/18 11:53:22;;;;;;;;;;;5.40;99.90;;;;;;5056924;28;19913;-71
2023/01/18 11:56:04;;;;;;;;;;;5.30;99.90;;;;;;5056054;28;19909;-72
2023/01/18 11:58:30;;;;;;;;;;;5.20;99.90;;;;;;5055923;28;19908;-70
2023/01/18 12:01:02;;;;;;;;;;;5.20;99.90;;;;;;5056010;28;19908;-68
2023/01/18 12:03:50;;;;;;;;;;;5.20;99.90;;;;;;5057233;28;19956;-68
2023/01/18 12:06:35;;;;;;;;;;;5.20;99.90;;;;;;5044501;28;20039;-71
2023/01/18 12:09:19;;;;;;;;;;;5.30;99.90;;;;;;5056807;28;19966;-71
2023/01/18 12:12:05;;;;;;;;;;;5.30;99.90;;;;;;5056798;28;19916;-70
2023/01/18 12:14:50;;;;;;;;;;;5.50;99.90;;;;;;5031635;28;20381;-72
2023/01/18 12:17:27;;;;;;;;;;;5.60;99.90;;;;;;5047191;28;20388;-71
2023/01/18 12:20:01;;;;;;;;;;;5.50;99.90;;;;;;5059865;28;19909;-74
2023/01/18 12:22:40;;;;;;;;;;;5.40;99.90;;;;;;5046694;28;19917;-72
2023/01/18 12:25:08;;;;;;;;;;;5.40;99.90;;;;;;5041297;28;20285;-72
2023/01/18 12:27:46;;;;;;;;;;;5.40;99.90;;;;;;5047032;28;19908;-70
2023/01/18 12:30:11;;;;;;;;;;;5.40;99.90;;;;;;5063347;28;19909;-70
2023/01/18 12:32:37;;;;;;;;;;;5.30;99.90;;;;;;5060890;28;20007;-70
2023/01/18 12:35:14;;;;;;;;;;;5.40;99.90;;;;;;5058127;28;19962;-71
2023/01/18 12:37:56;;;;;;;;;;;5.30;99.90;;;;;;5058088;28;19956;-71
2023/01/18 12:40:31;;;;;;;;;;;5.40;99.90;;;;;;5038397;28;19967;-70
2023/01/18 12:42:56;;;;;;;;;;;5.40;99.90;;;;;;5038503;28;20269;-71
2023/01/18 12:45:37;;;;;;;;;;;5.40;99.90;;;;;;5037313;28;20072;-71
2023/01/18 12:48:16;;;;;;;;;;;5.50;99.90;;;;;;5038456;28;19932;-73
2023/01/18 12:50:44;;;;;;;;;;;5.50;99.90;;;;;;5057520;28;19912;-71
2023/01/18 12:53:31;;;;;;;;;;;5.40;99.90;;;;;;5058000;28;20297;-70
2023/01/18 12:55:59;;;;;;;;;;;5.40;99.90;;;;;;5059647;28;19909;-70
2023/01/18 12:58:25;;;;;;;;;;;5.30;99.90;;;;;;5059643;28;19916;-70
2023/01/18 13:00:53;;;;;;;;;;;5.30;99.90;;;;;;5058968;28;19909;-71
2023/01/18 13:03:22;;;;;;;;;;;5.40;99.90;;;;;;5055957;28;19932;-71
2023/01/18 13:05:52;;;;;;;;;;;5.30;99.90;;;;;;5055536;28;20387;-71
2023/01/18 13:08:25;;;;;;;;;;;5.40;99.90;;;;;;5054688;28;19908;-66
2023/01/18 13:10:52;;;;;;;;;;;5.50;99.90;;;;;;5055579;28;19928;-67
2023/01/18 13:13:21;;;;;;;;;;;5.40;99.90;;;;;;5054157;28;19958;-67
2023/01/18 13:15:55;;;;;;;;;;;5.50;99.90;;;;;;5055587;28;19909;-67
2023/01/18 13:18:28;;;;;;;;;;;5.40;99.90;;;;;;5055827;28;20003;-68
2023/01/18 13:20:54;;;;;;;;;;;5.50;99.90;;;;;;5054193;28;19920;-67
2023/01/18 13:23:43;;;;;;;;;;;5.60;99.90;;;;;;5068499;23;19962;-73
2023/01/18 13:26:23;;;;;;;;;;;5.70;99.90;;;;;;5055968;28;19913;-73
2023/01/18 13:29:04;;;;;;;;;;;5.50;99.90;;;;;;5037825;28;20287;-73
2023/01/18 13:31:30;;;;;;;;;;;5.50;99.90;;;;;;5055627;28;19916;-71
2023/01/18 13:33:56;;;;;;;;;;;5.40;99.90;;;;;;5018438;28;20374;-71
2023/01/18 13:36:22;;;;;;;;;;;5.40;99.90;;;;;;5015365;28;19909;-75
2023/01/18 13:38:53;;;;;;;;;;;5.20;99.90;;;;;;5016409;28;19920;-73
2023/01/18 13:41:23;;;;;;;;;;;5.20;99.90;;;;;;5017462;28;19959;-73
2023/01/18 13:43:49;;;;;;;;;;;5.10;99.90;;;;;;5000877;28;19952;-72
2023/01/18 13:46:14;;;;;;;;;;;5.10;99.90;;;;;;5019217;28;19921;-73
2023/01/18 13:48:59;;;;;;;;;;;5.00;99.90;;;;;;5017669;28;19909;-74
2023/01/18 13:51:39;;;;;;;;;;;5.00;99.90;;;;;;5016371;28;19917;-73
2023/01/18 13:54:06;;;;;;;;;;;4.90;99.90;;;;;;5044404;28;19924;-73
2023/01/18 13:56:32;;;;;;;;;;;4.90;99.90;;;;;;5022727;28;19917;-75
2023/01/18 13:58:57;;;;;;;;;;;4.80;99.90;;;;;;5010767;28;19909;-71
2023/01/18 14:01:24;;;;;;;;;;;4.90;99.90;;;;;;5024606;28;20019;-69
2023/01/18 14:03:50;;;;;;;;;;;5.10;99.90;;;;;;5031709;28;20312;-67
2023/01/18 14:06:19;;;;;;;;;;;5.00;99.90;;;;;;5028770;28;19921;-68
2023/01/18 14:08:52;;;;;;;;;;;5.10;99.90;;;;;;5033142;28;19998;-71
2023/01/18 14:11:29;;;;;;;;;;;5.10;99.90;;;;;;5034995;28;19909;-70
2023/01/18 14:13:58;;;;;;;;;;;5.00;99.90;;;;;;5033972;28;19957;-69
2023/01/18 14:16:24;;;;;;;;;;;4.90;99.90;;;;;;5033811;28;20090;-73
2023/01/18 14:18:51;;;;;;;;;;;4.90;99.90;;;;;;5017612;28;20280;-69
2023/01/18 14:21:23;;;;;;;;;;;5.00;99.90;;;;;;5034496;28;19936;-65
2023/01/18 14:24:07;;;;;;;;;;;5.10;99.90;;;;;;5034058;28;19921;-67
2023/01/18 14:26:34;;;;;;;;;;;5.20;99.90;;;;;;5034459;28;19956;-69
2023/01/18 14:29:02;;;;;;;;;;;5.20;99.90;;;;;;5034569;28;19960;-68
2023/01/18 14:31:36;;;;;;;;;;;5.10;99.90;;;;;;5034333;28;20005;-67
2023/01/18 14:34:20;;;;;;;;;;;5.10;99.90;;;;;;5034159;28;20370;-68
2023/01/18 14:36:46;;;;;;;;;;;5.00;99.90;;;;;;5033218;28;20277;-66
2023/01/18 14:39:12;;;;;;;;;;;4.90;99.90;;;;;;5016179;28;19909;-68
2023/01/18 14:41:45;;;;;;;;;;;4.90;99.90;;;;;;5024898;28;19943;-68
2023/01/18 14:44:16;;;;;;;;;;;4.90;99.90;;;;;;5024596;28;19967;-67
2023/01/18 14:46:47;;;;;;;;;;;4.70;99.90;;;;;;5023576;28;19910;-66
2023/01/18 14:49:14;;;;;;;;;;;4.60;99.90;;;;;;5021910;28;19996;-66
2023/01/18 14:51:44;;;;;;;;;;;4.60;99.90;;;;;;5023703;28;19914;-65
2023/01/18 14:54:12;;;;;;;;;;;4.60;99.90;;;;;;5026940;28;19920;-66
2023/01/18 14:56:41;;;;;;;;;;;4.60;99.90;;;;;;5022850;28;19913;-64
2023/01/18 14:59:20;;;;;;;;;;;4.70;99.90;;;;;;5019469;28;20350;-68
2023/01/18 15:01:53;;;;;;;;;;;4.50;99.90;;;;;;5015938;28;19913;-65
2023/01/18 15:04:20;;;;;;;;;;;4.50;99.90;;;;;;5033726;28;19913;-66
2023/01/18 15:06:48;;;;;;;;;;;4.40;99.90;;;;;;5033245;28;19909;-67
2023/01/18 15:09:14;;;;;;;;;;;4.30;99.90;;;;;;5033322;28;19988;-64
2023/01/18 15:11:41;;;;;;;;;;;4.30;99.90;;;;;;5033390;28;19917;-67
2023/01/18 15:14:26;;;;;;;;;;;4.20;99.90;;;;;;5034115;28;19909;-67